Time;durP1;ratioP1;P1;durP2;ratioP2;P2;SDS_P1;SDS_P2;PMS_P1;PMS_P2;Temp;Humidity;BMP_temperature;BMP_pressure;BME280_temperature;BME280_humidity;BME280_pressure;Samples;Min_cycle;Max_cycle;Signal;HPM_P1;HPM_P2
2022/05/24 00:00:11;;;;;;;;;;;;;;;16.39;75.26;95852.81;30002;983;1881;-59
2022/05/24 00:00:43;;;;;;;;;;;;;;;16.37;75.76;95855.09;30002;983;1885;-58
2022/05/24 00:01:15;;;;;;;;;;;;;;;16.36;75.47;95854.31;30002;983;1881;-58
2022/05/24 00:01:48;;;;;;;;;;;;;;;16.37;75.27;95849.63;30002;983;1886;-58
2022/05/24 00:02:19;;;;;;;;;;;;;;;16.46;75.67;95850.25;30002;983;1881;-58
2022/05/24 00:02:50;;;;;;;;;;;;;;;16.49;75.01;95857.75;30002;983;1886;-51
2022/05/24 00:03:21;;;;;;;;;;;;;;;16.53;74.73;95864.09;30002;983;1868;-57
2022/05/24 00:03:52;;;;;;;;;;;;;;;16.52;74.89;95867.19;30002;982;1877;-54
2022/05/24 00:04:23;;;;;;;;;;;;;;;16.49;75.08;95857.75;30002;982;1882;-58
2022/05/24 00:04:56;;;;;;;;;;;;;;;16.45;74.83;95856.88;30002;982;1886;-58
2022/05/24 00:05:31;;;;;;;;;;;;;;;16.45;75.11;95862.34;30002;982;1882;-58
2022/05/24 00:06:02;;;;;;;;;;;;;;;16.40;75.34;95860.66;30002;982;1886;-59
2022/05/24 00:06:36;;;;;;;;;;;;;;;16.43;75.31;95859.16;30002;982;1882;-58
2022/05/24 00:07:07;;;;;;;;;;;;;;;16.45;75.04;95865.09;30002;983;1885;-57
2022/05/24 00:07:38;;;;;;;;;;;;;;;16.45;74.90;95862.34;30002;983;1881;-59
2022/05/24 00:08:09;;;;;;;;;;;;;;;16.43;74.84;95862.69;30002;983;1886;-57
2022/05/24 00:08:43;;;;;;;;;;;;;;;16.44;74.88;95868.97;30002;983;1868;-58
2022/05/24 00:09:14;;;;;;;;;;;;;;;16.43;74.65;95865.44;30002;983;1877;-57
2022/05/24 00:09:44;;;;;;;;;;;;;;;16.41;75.15;95866.94;30002;983;1881;-58
2022/05/24 00:10:17;;;;;;;;;;;;;;;16.40;75.16;95865.34;30002;983;1886;-57
2022/05/24 00:10:48;;;;;;;;;;;;;;;16.38;75.27;95862.16;30002;983;1881;-56
2022/05/24 00:11:19;;;;;;;;;;;;;;;16.42;75.00;95868.53;30002;982;1873;-58
2022/05/24 00:11:50;;;;;;;;;;;;;;;16.40;75.00;95865.34;30002;982;1873;-59
2022/05/24 00:12:21;;;;;;;;;;;;;;;16.36;75.32;95865.25;30002;982;1886;-59
2022/05/24 00:12:52;;;;;;;;;;;;;;;16.37;75.10;95872.31;30002;982;1882;-57
2022/05/24 00:13:23;;;;;;;;;;;;;;;16.39;74.95;95874.72;30001;982;1886;-57
2022/05/24 00:13:54;;;;;;;;;;;;;;;16.38;75.00;95875.84;30001;982;1882;-57
2022/05/24 00:15:23;;;;;;;;;;;;;;;16.32;75.47;95869.06;30001;983;1881;-58
2022/05/24 00:15:54;;;;;;;;;;;;;;;16.31;75.33;95878.41;30001;983;1886;-59
2022/05/24 00:16:24;;;;;;;;;;;;;;;16.29;75.49;95878.78;30001;983;1868;-55
2022/05/24 00:16:55;;;;;;;;;;;;;;;16.27;75.60;95877.56;30001;983;1864;-57
2022/05/24 00:17:26;;;;;;;;;;;;;;;16.24;75.79;95873.59;30001;987;1881;-58
2022/05/24 00:18:04;;;;;;;;;;;;;;;16.20;75.92;95880.13;30001;962;1907;-60
2022/05/24 00:18:35;;;;;;;;;;;;;;;16.14;76.42;95876.06;30001;983;1881;-60
2022/05/24 00:19:06;;;;;;;;;;;;;;;16.08;76.44;95876.31;30001;986;1886;-58
2022/05/24 00:19:37;;;;;;;;;;;;;;;16.04;76.48;95872.69;30001;982;1881;-58
2022/05/24 00:20:09;;;;;;;;;;;;;;;16.05;76.85;95877.00;30001;982;1886;-60
2022/05/24 00:20:45;;;;;;;;;;;;;;;16.05;76.69;95877.00;30001;982;1882;-58
2022/05/24 00:21:16;;;;;;;;;;;;;;;16.04;77.28;95874.62;30001;982;1886;-57
2022/05/24 00:21:47;;;;;;;;;;;;;;;16.02;77.72;95874.97;30001;983;1868;-58
2022/05/24 00:22:17;;;;;;;;;;;;;;;15.99;77.25;95881.16;30001;983;1876;-55
2022/05/24 00:22:48;;;;;;;;;;;;;;;15.94;78.35;95870.47;30001;983;1881;-58
2022/05/24 00:23:21;;;;;;;;;;;;;;;15.90;78.35;95877.81;30001;983;1885;-52
2022/05/24 00:23:51;;;;;;;;;;;;;;;15.87;78.32;95878.50;30001;983;1868;-58
2022/05/24 00:24:22;;;;;;;;;;;;;;;15.87;78.38;95870.31;30001;983;1864;-57
2022/05/24 00:24:55;;;;;;;;;;;;;;;15.87;78.75;95875.78;30001;981;1884;-57
2022/05/24 00:25:27;;;;;;;;;;;;;;;15.87;78.88;95875.78;30001;983;1886;-59
2022/05/24 00:25:59;;;;;;;;;;;;;;;15.84;78.60;95868.28;30001;983;1881;-59
2022/05/24 00:26:31;;;;;;;;;;;;;;;15.78;79.04;95872.41;30001;982;1886;-59
2022/05/24 00:27:02;;;;;;;;;;;;;;;15.77;79.38;95873.56;30001;982;1881;-58
2022/05/24 00:27:33;;;;;;;;;;;;;;;15.73;80.45;95870.72;30001;982;1886;-59
2022/05/24 00:28:05;;;;;;;;;;;;;;;15.68;80.24;95872.91;30001;982;1882;-59
2022/05/24 00:28:36;;;;;;;;;;;;;;;15.66;79.96;95875.19;30001;982;1886;-59
2022/05/24 00:29:08;;;;;;;;;;;;;;;15.65;80.39;95868.13;30001;983;1881;-60
2022/05/24 00:29:41;;;;;;;;;;;;;;;15.65;79.83;95873.59;30001;983;1872;-59
2022/05/24 00:30:14;;;;;;;;;;;;;;;15.67;80.34;95876.78;30001;983;1872;-58
2022/05/24 00:30:45;;;;;;;;;;;;;;;15.64;80.99;95872.81;30001;983;1886;-59
2022/05/24 00:31:16;;;;;;;;;;;;;;;15.60;80.33;95871.91;30001;983;1881;-58
2022/05/24 00:31:47;;;;;;;;;;;;;;;15.60;80.44;95873.84;30001;983;1885;-58
2022/05/24 00:32:18;;;;;;;;;;;;;;;15.58;80.28;95873.44;30001;983;1881;-58
2022/05/24 00:32:49;;;;;;;;;;;;;;;15.58;81.09;95873.44;30001;983;1886;-58
2022/05/24 00:33:23;;;;;;;;;;;;;;;15.56;81.31;95876.53;30001;983;1882;-58
2022/05/24 00:33:54;;;;;;;;;;;;;;;15.52;81.50;95875.59;30001;982;1886;-58
2022/05/24 00:34:24;;;;;;;;;;;;;;;15.51;81.20;95873.22;30001;982;1869;-57
2022/05/24 00:34:55;;;;;;;;;;;;;;;15.51;81.28;95870.47;30002;982;1798;-59
2022/05/24 00:35:26;;;;;;;;;;;;;;;15.46;81.35;95865.25;30001;986;1882;-59
2022/05/24 00:35:57;;;;;;;;;;;;;;;15.43;81.88;95867.53;30001;982;1886;-58
2022/05/24 00:36:28;;;;;;;;;;;;;;;15.40;81.99;95862.75;30001;983;1881;-59
2022/05/24 00:36:59;;;;;;;;;;;;;;;15.39;82.06;95872.09;30001;983;1885;-58
2022/05/24 00:37:32;;;;;;;;;;;;;;;15.40;81.87;95870.97;30001;983;1868;-57
2022/05/24 00:38:03;;;;;;;;;;;;;;;15.42;81.75;95876.87;30001;983;1870;-57
2022/05/24 00:38:38;;;;;;;;;;;;;;;15.40;81.83;95861.97;30001;987;1873;-58
2022/05/24 00:39:09;;;;;;;;;;;;;;;15.37;81.96;95863.47;30001;983;1886;-57
2022/05/24 00:39:40;;;;;;;;;;;;;;;15.41;81.83;95861.63;30001;983;1881;-60
2022/05/24 00:40:15;;;;;;;;;;;;;;;15.40;81.53;95859.25;30001;983;1886;-56
2022/05/24 00:41:06;;;;;;;;;;;;;;;15.39;81.96;95861.16;30001;982;1882;-57
2022/05/24 00:41:41;;;;;;;;;;;;;;;15.37;81.76;95866.19;30001;982;1868;-57
2022/05/24 00:42:13;;;;;;;;;;;;;;;15.47;81.35;95859.44;30001;982;1873;-59
2022/05/24 00:42:46;;;;;;;;;;;;;;;15.51;80.63;95856.81;30001;982;1886;-58
2022/05/24 00:43:45;;;;;;;;;;;;;;;15.50;81.11;95855.22;30001;982;1882;-59
2022/05/24 00:44:26;;;;;;;;;;;;;;;15.39;81.84;95855.72;30001;983;1881;-60
2022/05/24 00:45:01;;;;;;;;;;;;;;;15.34;82.16;95857.88;30001;983;1868;-58
2022/05/24 00:45:49;;;;;;;;;;;;;;;15.31;81.90;95858.59;30001;983;1877;-57
2022/05/24 00:46:22;;;;;;;;;;;;;;;15.28;82.05;95853.81;30001;966;1898;-59
2022/05/24 00:46:56;;;;;;;;;;;;;;;15.26;82.35;95851.41;30001;983;1886;-58
2022/05/24 00:47:33;;;;;;;;;;;;;;;15.23;82.87;95846.69;30001;983;1882;-59
2022/05/24 00:48:06;;;;;;;;;;;;;;;15.21;82.30;95853.63;30001;983;1886;-58
2022/05/24 00:48:45;;;;;;;;;;;;;;;15.21;82.34;95856.38;30001;982;1881;-59
2022/05/24 00:49:31;;;;;;;;;;;;;;;15.19;83.00;95856.72;30001;982;1886;-58
2022/05/24 00:50:10;;;;;;;;;;;;;;;15.21;82.44;95853.63;30001;982;1869;-57
2022/05/24 00:50:43;;;;;;;;;;;;;;;15.20;82.19;95846.59;30001;982;1877;-59
2022/05/24 00:51:15;;;;;;;;;;;;;;;15.19;82.53;95851.25;30001;982;1882;-59
2022/05/24 00:51:59;;;;;;;;;;;;;;;15.18;82.70;95846.13;30001;983;1886;-57
2022/05/24 00:52:34;;;;;;;;;;;;;;;15.19;82.84;95850.44;30001;983;1881;-57
2022/05/24 00:53:07;;;;;;;;;;;;;;;15.23;82.65;95857.63;30001;983;1886;-57
2022/05/24 00:53:40;;;;;;;;;;;;;;;15.24;82.20;95852.94;30001;983;1881;-59
2022/05/24 00:54:11;;;;;;;;;;;;;;;15.26;82.39;95850.62;30001;983;1886;-57
2022/05/24 00:54:42;;;;;;;;;;;;;;;15.26;81.95;95850.62;30001;983;1881;-59
2022/05/24 00:55:14;;;;;;;;;;;;;;;15.25;82.17;95852.56;30001;983;1873;-59
2022/05/24 00:55:49;;;;;;;;;;;;;;;15.24;82.18;95851.00;30001;982;1873;-59
2022/05/24 00:56:33;;;;;;;;;;;;;;;15.21;82.18;95848.16;30001;982;1886;-59
2022/05/24 00:57:19;;;;;;;;;;;;;;;15.18;82.70;95859.78;30001;982;1869;-58
2022/05/24 00:58:07;;;;;;;;;;;;;;;15.14;84.16;95846.03;30001;982;1877;-59
2022/05/24 00:58:58;;;;;;;;;;;;;;;15.09;84.42;95852.53;30001;982;1882;-59
2022/05/24 00:59:38;;;;;;;;;;;;;;;15.04;84.86;95849.25;30001;983;1846;-58
2022/05/24 01:00:11;;;;;;;;;;;;;;;15.02;84.50;95852.31;30001;983;1881;-59
2022/05/24 01:00:42;;;;;;;;;;;;;;;15.02;85.19;95860.50;30001;983;1872;-59
2022/05/24 01:01:34;;;;;;;;;;;;;;;15.01;85.17;95858.12;30001;983;1872;-60
2022/05/24 01:02:05;;;;;;;;;;;;;;;14.99;84.93;95855.75;30001;983;1886;-59
2022/05/24 01:02:36;;;;;;;;;;;;;;;15.00;85.85;95864.72;30001;983;1868;-58
2022/05/24 01:03:07;;;;;;;;;;;;;;;14.99;85.26;95868.59;30001;983;1877;-59
2022/05/24 01:03:38;;;;;;;;;;;;;;;14.99;84.94;95860.41;30001;982;1881;-58
2022/05/24 01:04:10;;;;;;;;;;;;;;;14.99;85.03;95863.13;30001;982;1886;-59
2022/05/24 01:04:41;;;;;;;;;;;;;;;14.99;84.53;95863.13;30001;982;1882;-59
2022/05/24 01:05:17;;;;;;;;;;;;;;;14.98;84.58;95861.53;30001;982;1873;-58
2022/05/24 01:05:48;;;;;;;;;;;;;;;14.98;84.81;95864.28;30001;982;1873;-59
2022/05/24 01:06:20;;;;;;;;;;;;;;;14.98;84.53;95856.09;30001;982;1886;-58
2022/05/24 01:06:51;;;;;;;;;;;;;;;14.98;84.78;95861.53;30001;983;1881;-59
2022/05/24 01:07:22;;;;;;;;;;;;;;;14.98;84.36;95861.53;30001;983;1885;-58
2022/05/24 01:07:53;;;;;;;;;;;;;;;14.99;84.35;95858.47;30001;983;1881;-59
2022/05/24 01:08:23;;;;;;;;;;;;;;;14.99;84.51;95868.59;30001;983;1885;-57
2022/05/24 01:08:57;;;;;;;;;;;;;;;14.98;84.40;95859.59;30001;983;1881;-58
2022/05/24 01:09:30;;;;;;;;;;;;;;;14.96;84.66;95863.81;30001;983;1886;-58
2022/05/24 01:10:03;;;;;;;;;;;;;;;14.96;84.44;95858.38;30001;983;1868;-59
2022/05/24 01:10:36;;;;;;;;;;;;;;;14.97;84.25;95859.94;30001;983;1877;-53
2022/05/24 01:11:08;;;;;;;;;;;;;;;14.97;84.06;95859.94;30001;982;1882;-58
2022/05/24 01:11:41;;;;;;;;;;;;;;;14.98;84.36;95861.53;30001;966;1902;-58
2022/05/24 01:12:19;;;;;;;;;;;;;;;14.97;84.43;95858.03;30001;982;1882;-58
2022/05/24 01:13:02;;;;;;;;;;;;;;;14.96;84.32;95859.16;30001;982;1886;-58
2022/05/24 01:13:32;;;;;;;;;;;;;;;14.95;84.67;95856.78;30001;983;1881;-59
2022/05/24 01:14:04;;;;;;;;;;;;;;;14.93;84.64;95857.13;30001;983;1885;-56
2022/05/24 01:14:35;;;;;;;;;;;;;;;14.94;84.24;95855.97;30001;983;1881;-58
2022/05/24 01:15:08;;;;;;;;;;;;;;;14.95;84.60;95856.78;30001;983;1873;-55
2022/05/24 01:15:40;;;;;;;;;;;;;;;14.95;84.32;95863.03;30001;983;1872;-58
2022/05/24 01:16:11;;;;;;;;;;;;;;;14.95;84.43;95856.78;30001;983;1885;-59
2022/05/24 01:16:43;;;;;;;;;;;;;;;14.95;84.66;95856.78;30001;983;1881;-58
2022/05/24 01:17:13;;;;;;;;;;;;;;;14.95;84.53;95857.56;30001;983;1886;-59
2022/05/24 01:17:45;;;;;;;;;;;;;;;14.96;84.65;95852.91;30001;983;1881;-59
2022/05/24 01:18:16;;;;;;;;;;;;;;;14.95;85.36;95859.50;30001;983;1886;-58
2022/05/24 01:18:47;;;;;;;;;;;;;;;14.93;85.30;95856.31;30001;982;1881;-58
2022/05/24 01:19:34;;;;;;;;;;;;;;;14.93;85.50;95859.06;30001;982;1886;-57
2022/05/24 01:20:05;;;;;;;;;;;;;;;14.91;86.04;95848.47;30001;982;1864;-58
2022/05/24 01:20:37;;;;;;;;;;;;;;;14.91;85.59;95855.88;30001;965;1881;-58
2022/05/24 01:21:09;;;;;;;;;;;;;;;14.91;86.33;95855.88;30001;983;1881;-59
2022/05/24 01:21:40;;;;;;;;;;;;;;;14.89;86.35;95858.97;30001;983;1885;-58
2022/05/24 01:22:34;;;;;;;;;;;;;;;14.89;86.07;95858.19;30001;983;1881;-58
2022/05/24 01:23:22;;;;;;;;;;;;;;;14.88;85.86;95857.38;30002;341;1462;-58
2022/05/24 01:24:15;;;;;;;;;;;;;;;14.89;85.35;95858.19;30001;983;1881;-59
2022/05/24 01:24:53;;;;;;;;;;;;;;;14.89;85.26;95855.44;30001;983;1868;-60
2022/05/24 01:25:43;;;;;;;;;;;;;;;14.90;85.01;95857.81;30001;983;1873;-58
2022/05/24 01:26:45;;;;;;;;;;;;;;;14.90;84.44;95848.84;30001;982;1877;-58
2022/05/24 01:27:16;;;;;;;;;;;;;;;14.88;84.88;95845.66;30001;986;1864;-58
2022/05/24 01:27:47;;;;;;;;;;;;;;;14.88;84.79;95845.66;30001;982;1878;-59
2022/05/24 01:28:25;;;;;;;;;;;;;;;14.88;84.76;95848.38;30001;982;1882;-59
2022/05/24 01:28:57;;;;;;;;;;;;;;;14.90;85.59;95848.84;30001;983;1885;-59
2022/05/24 01:29:29;;;;;;;;;;;;;;;14.89;85.25;95847.25;30001;983;1868;-59
2022/05/24 01:29:59;;;;;;;;;;;;;;;14.89;84.80;95849.97;30001;983;1877;-60
2022/05/24 01:30:31;;;;;;;;;;;;;;;14.89;84.94;95844.53;30001;983;1881;-59
2022/05/24 01:31:02;;;;;;;;;;;;;;;14.89;84.90;95848.03;30001;983;1886;-60
2022/05/24 01:36:37;;;;;;;;;;;;;;;14.87;84.44;95850.31;30001;983;1881;-60
2022/05/24 01:37:09;;;;;;;;;;;;;;;14.88;84.92;95848.38;30001;983;1886;-59
2022/05/24 01:37:40;;;;;;;;;;;;;;;14.88;85.27;95853.84;30001;983;1868;-58
2022/05/24 01:38:13;;;;;;;;;;;;;;;14.88;84.97;95845.66;30001;983;1877;-60
2022/05/24 01:38:48;;;;;;;;;;;;;;;14.88;84.78;95848.38;30001;983;1881;-60
2022/05/24 01:39:22;;;;;;;;;;;;;;;14.88;84.73;95845.66;30001;983;1886;-60
2022/05/24 01:39:56;;;;;;;;;;;;;;;14.88;84.73;95851.12;30001;983;1882;-54
2022/05/24 01:40:30;;;;;;;;;;;;;;;14.89;84.53;95847.25;30001;983;1886;-55
2022/05/24 01:41:02;;;;;;;;;;;;;;;14.89;84.42;95855.44;30001;982;1882;-58
2022/05/24 01:41:52;;;;;;;;;;;;;;;14.89;84.46;95852.72;30001;982;1873;-58
2022/05/24 01:42:23;;;;;;;;;;;;;;;14.89;84.08;95858.19;30001;982;1835;-59
2022/05/24 01:42:54;;;;;;;;;;;;;;;14.88;84.47;95856.59;30001;982;1886;-58
2022/05/24 01:43:26;;;;;;;;;;;;;;;14.88;84.09;95859.31;30001;982;1882;-60
2022/05/24 01:43:57;;;;;;;;;;;;;;;14.87;84.74;95849.53;30001;983;1872;-59
2022/05/24 01:44:31;;;;;;;;;;;;;;;14.87;84.90;95857.72;30001;983;1872;-58
2022/05/24 01:45:28;;;;;;;;;;;;;;;14.87;84.66;95849.53;30001;983;1886;-56
2022/05/24 01:46:03;;;;;;;;;;;;;;;14.86;84.75;95848.75;30001;983;1877;-60
2022/05/24 01:46:38;;;;;;;;;;;;;;;14.88;85.01;95842.94;30001;983;1886;-59
2022/05/24 01:47:10;;;;;;;;;;;;;;;14.87;84.64;95838.59;30001;983;1882;-60
2022/05/24 01:47:47;;;;;;;;;;;;;;;14.88;85.03;95845.66;30001;983;1886;-56
2022/05/24 01:48:20;;;;;;;;;;;;;;;14.87;85.30;95844.06;30001;982;1882;-59
2022/05/24 01:48:54;;;;;;;;;;;;;;;14.84;85.67;95848.28;30001;982;1886;-60
2022/05/24 01:49:27;;;;;;;;;;;;;;;14.82;86.00;95847.84;30001;982;1868;-61
2022/05/24 01:50:03;;;;;;;;;;;;;;;14.81;85.69;95845.44;30001;982;1877;-58
2022/05/24 01:50:35;;;;;;;;;;;;;;;14.78;85.48;95840.66;30001;982;1882;-58
2022/05/24 01:51:09;;;;;;;;;;;;;;;14.75;86.02;95837.50;30001;983;1885;-58
2022/05/24 01:51:46;;;;;;;;;;;;;;;14.73;85.98;95845.22;30001;983;1881;-56
2022/05/24 01:52:21;;;;;;;;;;;;;;;14.71;86.52;95842.03;30001;983;1885;-59
2022/05/24 01:52:54;;;;;;;;;;;;;;;14.70;86.43;95845.13;30001;983;1881;-58
2022/05/24 01:53:30;;;;;;;;;;;;;;;14.68;86.03;95845.47;30001;983;1872;-59
2022/05/24 01:54:03;;;;;;;;;;;;;;;14.66;86.22;95836.81;30001;983;1872;-58
2022/05/24 01:54:38;;;;;;;;;;;;;;;14.67;85.96;95834.88;30001;983;1886;-58
2022/05/24 01:55:14;;;;;;;;;;;;;;;14.67;85.76;95832.94;30001;983;1868;-59
2022/05/24 01:55:51;;;;;;;;;;;;;;;14.68;85.82;95831.00;30001;982;1877;-59
2022/05/24 01:56:36;;;;;;;;;;;;;;;14.67;85.57;95830.22;30001;982;1882;-59
2022/05/24 01:57:19;;;;;;;;;;;;;;;14.68;85.66;95831.81;30001;982;1886;-58
2022/05/24 01:57:51;;;;;;;;;;;;;;;14.67;86.02;95832.94;30001;982;1882;-60
2022/05/24 01:58:26;;;;;;;;;;;;;;;14.67;85.83;95824.75;30001;982;1886;-55
2022/05/24 01:59:02;;;;;;;;;;;;;;;14.66;86.48;95831.34;30001;983;1881;-58
2022/05/24 01:59:34;;;;;;;;;;;;;;;14.62;86.87;95827.72;30001;983;1886;-58
2022/05/24 02:00:07;;;;;;;;;;;;;;;14.59;86.62;95820.22;30001;983;1881;-61
2022/05/24 02:00:40;;;;;;;;;;;;;;;14.59;86.54;95824.87;30001;983;1873;-58
2022/05/24 02:01:30;;;;;;;;;;;;;;;14.58;86.71;95831.47;30001;983;1873;-60
2022/05/24 02:02:01;;;;;;;;;;;;;;;14.57;86.87;95822.50;30001;987;1881;-60
2022/05/24 02:02:32;;;;;;;;;;;;;;;14.57;86.95;95827.94;30001;983;1881;-59
2022/05/24 02:03:04;;;;;;;;;;;;;;;14.56;86.63;95829.09;30001;982;1886;-59
2022/05/24 02:03:35;;;;;;;;;;;;;;;14.56;86.61;95826.38;30001;982;1881;-60
2022/05/24 02:04:06;;;;;;;;;;;;;;;14.54;87.00;95828.66;30001;982;1886;-58
2022/05/24 02:04:37;;;;;;;;;;;;;;;14.55;86.93;95824.81;30001;982;1882;-59
2022/05/24 02:05:08;;;;;;;;;;;;;;;14.54;86.86;95822.41;30001;982;1886;-59
2022/05/24 02:05:41;;;;;;;;;;;;;;;14.53;87.25;95829.81;30001;982;1869;-60
2022/05/24 02:06:19;;;;;;;;;;;;;;;14.51;87.51;95821.16;30001;983;1847;-59
2022/05/24 02:07:04;;;;;;;;;;;;;;;14.47;87.37;95825.72;30001;983;1881;-59
2022/05/24 02:07:35;;;;;;;;;;;;;;;14.47;86.95;95825.72;30001;983;1885;-56
2022/05/24 02:08:07;;;;;;;;;;;;;;;14.47;87.09;95814.00;30001;983;1881;-59
2022/05/24 02:08:39;;;;;;;;;;;;;;;14.48;87.01;95818.31;30001;983;1885;-58
2022/05/24 02:09:11;;;;;;;;;;;;;;;14.47;86.97;95820.25;30001;983;1881;-60
2022/05/24 02:09:43;;;;;;;;;;;;;;;14.48;87.45;95827.31;30001;983;1886;-58
2022/05/24 02:10:14;;;;;;;;;;;;;;;14.47;87.49;95820.25;30001;983;1881;-58
2022/05/24 02:10:59;;;;;;;;;;;;;;;14.45;87.52;95819.81;30001;982;1873;-59
2022/05/24 02:11:31;;;;;;;;;;;;;;;14.45;87.05;95825.25;30001;978;1887;-59
2022/05/24 02:12:37;;;;;;;;;;;;;;;14.45;87.08;95828.00;30001;982;1886;-60
2022/05/24 02:13:08;;;;;;;;;;;;;;;14.46;87.10;95832.31;30001;982;1878;-58
2022/05/24 02:13:42;;;;;;;;;;;;;;;14.45;87.00;95830.72;30001;982;1886;-57
2022/05/24 02:14:17;;;;;;;;;;;;;;;14.46;86.92;95834.25;30001;983;1868;-58
2022/05/24 02:14:53;;;;;;;;;;;;;;;14.46;86.90;95840.50;30001;983;1877;-58
2022/05/24 02:15:26;;;;;;;;;;;;;;;14.47;86.84;95841.28;30001;983;1881;-58
2022/05/24 02:15:59;;;;;;;;;;;;;;;14.46;87.19;95845.97;30001;983;1886;-59
2022/05/24 02:16:31;;;;;;;;;;;;;;;14.47;86.63;95846.75;30001;983;1881;-58
2022/05/24 02:17:07;;;;;;;;;;;;;;;14.46;86.92;95836.97;30001;983;1886;-58
2022/05/24 02:18:00;;;;;;;;;;;;;;;14.46;86.80;95845.97;30001;983;1882;-59
2022/05/24 02:18:32;;;;;;;;;;;;;;;14.47;86.44;95841.28;30001;982;1882;-58
2022/05/24 02:19:07;;;;;;;;;;;;;;;14.49;86.40;95842.53;30001;982;1864;-58
2022/05/24 02:19:40;;;;;;;;;;;;;;;14.49;86.40;95845.28;30001;982;1860;-57
2022/05/24 02:20:13;;;;;;;;;;;;;;;14.48;86.57;95832.78;30001;982;1877;-57
2022/05/24 02:20:45;;;;;;;;;;;;;;;14.48;86.57;95837.44;30001;983;1881;-58
2022/05/24 02:21:16;;;;;;;;;;;;;;;14.47;86.20;95831.19;30001;983;1877;-58
2022/05/24 02:21:50;;;;;;;;;;;;;;;14.46;86.64;95834.25;30001;983;1881;-58
2022/05/24 02:22:22;;;;;;;;;;;;;;;14.45;86.83;95836.19;30001;983;1877;-58
2022/05/24 02:22:57;;;;;;;;;;;;;;;14.44;86.88;95842.78;30001;983;1881;-58
2022/05/24 02:23:29;;;;;;;;;;;;;;;14.47;86.61;95847.56;30001;983;1756;-58
2022/05/24 02:24:13;;;;;;;;;;;;;;;14.47;86.55;95836.62;30001;983;1873;-58
2022/05/24 02:24:45;;;;;;;;;;;;;;;14.46;86.46;95842.44;30001;983;1877;-61
2022/05/24 02:25:27;;;;;;;;;;;;;;;14.44;86.72;95834.59;30001;983;1881;-58
2022/05/24 02:25:58;;;;;;;;;;;;;;;14.44;86.67;95831.06;30001;982;1877;-58
2022/05/24 02:26:30;;;;;;;;;;;;;;;14.44;86.76;95837.31;30001;982;1882;-59
2022/05/24 02:27:02;;;;;;;;;;;;;;;14.43;86.54;95840.37;30001;982;1877;-58
2022/05/24 02:27:37;;;;;;;;;;;;;;;14.43;86.61;95838.44;30001;982;1882;-59
2022/05/24 02:28:10;;;;;;;;;;;;;;;14.44;86.38;95831.06;30001;983;1876;-58
2022/05/24 02:28:41;;;;;;;;;;;;;;;14.44;86.30;95831.84;30001;983;1868;-58
2022/05/24 02:29:11;;;;;;;;;;;;;;;14.45;86.24;95833.44;30001;983;1868;-59
2022/05/24 02:29:42;;;;;;;;;;;;;;;14.45;86.67;95828.00;30001;983;1881;-59
2022/05/24 02:30:15;;;;;;;;;;;;;;;14.44;86.33;95831.84;30001;983;1877;-58
2022/05/24 02:30:53;;;;;;;;;;;;;;;14.43;86.37;95830.25;30001;983;1881;-59
2022/05/24 02:31:26;;;;;;;;;;;;;;;14.45;86.48;95829.94;30001;983;1864;-58
2022/05/24 02:31:57;;;;;;;;;;;;;;;14.44;86.76;95833.78;30001;983;1873;-58
2022/05/24 02:32:28;;;;;;;;;;;;;;;14.43;86.63;95838.44;30001;983;1877;-58
2022/05/24 02:32:59;;;;;;;;;;;;;;;14.42;86.96;95828.69;30001;983;1881;-59
2022/05/24 02:33:30;;;;;;;;;;;;;;;14.41;86.45;95832.53;30001;982;1877;-58
2022/05/24 02:34:01;;;;;;;;;;;;;;;14.40;86.79;95823.53;30001;982;1882;-55
2022/05/24 02:34:34;;;;;;;;;;;;;;;14.39;86.53;95832.06;30001;982;1878;-58
2022/05/24 02:35:06;;;;;;;;;;;;;;;14.39;86.84;95837.50;30001;982;1882;-58
2022/05/24 02:35:38;;;;;;;;;;;;;;;14.37;86.63;95837.06;30001;983;1776;-58
2022/05/24 02:36:09;;;;;;;;;;;;;;;14.37;86.83;95831.59;30001;983;1881;-58
2022/05/24 02:36:40;;;;;;;;;;;;;;;14.36;86.89;95830.00;30001;983;1863;-58
2022/05/24 02:37:11;;;;;;;;;;;;;;;14.36;86.61;95830.81;30001;983;1872;-58
2022/05/24 02:37:42;;;;;;;;;;;;;;;14.36;86.40;95830.00;30001;983;1877;-60
2022/05/24 02:38:13;;;;;;;;;;;;;;;14.36;86.59;95830.00;30001;983;1881;-59
2022/05/24 02:38:44;;;;;;;;;;;;;;;14.36;86.71;95830.00;30001;983;1877;-59
2022/05/24 02:39:15;;;;;;;;;;;;;;;14.37;86.66;95831.59;30001;983;1882;-58
2022/05/24 02:41:29;;;;;;;;;;;;;;;14.31;86.68;95827.50;30001;982;1869;-59
2022/05/24 02:42:00;;;;;;;;;;;;;;;14.28;87.15;95831.72;30001;982;1882;-58
2022/05/24 02:42:31;;;;;;;;;;;;;;;14.24;86.68;95819.09;30001;982;1877;-59
2022/05/24 02:43:02;;;;;;;;;;;;;;;14.22;87.19;95824.87;30001;982;1869;-59
2022/05/24 02:43:36;;;;;;;;;;;;;;;14.22;87.09;95818.63;30001;983;1868;-59
2022/05/24 02:44:16;;;;;;;;;;;;;;;14.19;87.00;95819.34;30001;983;1881;-60
2022/05/24 02:44:47;;;;;;;;;;;;;;;14.18;87.71;95812.31;30001;983;1877;-59
2022/05/24 02:45:18;;;;;;;;;;;;;;;14.18;87.27;95821.28;30001;983;1881;-59
2022/05/24 02:45:50;;;;;;;;;;;;;;;14.19;87.00;95819.34;30001;983;1877;-58
2022/05/24 02:46:21;;;;;;;;;;;;;;;14.20;87.59;95826.41;30001;986;1881;-59
2022/05/24 02:46:52;;;;;;;;;;;;;;;14.21;87.20;95827.97;30001;983;1877;-60
2022/05/24 02:47:23;;;;;;;;;;;;;;;14.22;87.54;95822.16;30001;983;1881;-56
2022/05/24 02:47:54;;;;;;;;;;;;;;;14.23;87.09;95817.50;30001;983;1864;-58
2022/05/24 02:48:25;;;;;;;;;;;;;;;14.25;87.07;95828.88;30001;982;1772;-59
2022/05/24 02:48:56;;;;;;;;;;;;;;;14.27;87.12;95823.87;30001;982;1877;-60
2022/05/24 02:49:27;;;;;;;;;;;;;;;14.28;86.95;95817.28;30001;982;1882;-58
2022/05/24 02:49:58;;;;;;;;;;;;;;;14.29;86.69;95824.31;30001;982;1878;-59
2022/05/24 02:50:28;;;;;;;;;;;;;;;14.29;86.91;95819.66;30001;982;1882;-59
2022/05/24 02:50:59;;;;;;;;;;;;;;;14.32;86.94;95823.66;30001;983;1877;-60
2022/05/24 02:51:30;;;;;;;;;;;;;;;14.32;86.70;95823.66;30001;976;1897;-59
2022/05/24 02:52:01;;;;;;;;;;;;;;;14.32;86.63;95813.53;30001;983;1877;-58
2022/05/24 02:52:32;;;;;;;;;;;;;;;14.35;86.45;95814.78;30001;983;1881;-60
2022/05/24 02:53:03;;;;;;;;;;;;;;;14.35;86.43;95822.97;30001;983;1864;-59
2022/05/24 02:53:33;;;;;;;;;;;;;;;14.34;86.60;95824.91;30002;777;1015;-58
2022/05/24 02:54:05;;;;;;;;;;;;;;;14.36;86.10;95821.81;30001;983;1877;-58
2022/05/24 02:54:36;;;;;;;;;;;;;;;14.37;86.17;95815.22;30001;983;1882;-58
2022/05/24 02:55:08;;;;;;;;;;;;;;;14.36;86.10;95830.00;30001;982;1877;-59
2022/05/24 02:55:39;;;;;;;;;;;;;;;14.36;86.17;95824.56;30001;982;1882;-60
2022/05/24 02:56:10;;;;;;;;;;;;;;;14.36;86.32;95819.09;30001;982;1877;-59
2022/05/24 02:56:44;;;;;;;;;;;;;;;14.36;85.83;95819.09;30001;982;1869;-59
2022/05/24 02:57:15;;;;;;;;;;;;;;;14.34;85.78;95827.62;30001;982;1869;-60
2022/05/24 02:57:45;;;;;;;;;;;;;;;14.36;86.03;95827.28;30001;982;1882;-58
2022/05/24 02:58:16;;;;;;;;;;;;;;;14.35;85.96;95817.50;30001;983;1877;-58
2022/05/24 02:58:47;;;;;;;;;;;;;;;14.35;86.01;95814.78;30001;983;1795;-59
2022/05/24 02:59:19;;;;;;;;;;;;;;;14.36;85.88;95819.09;30001;983;1877;-57
2022/05/24 02:59:49;;;;;;;;;;;;;;;14.37;85.93;95809.78;30001;983;1856;-58
2022/05/24 03:00:22;;;;;;;;;;;;;;;14.38;85.57;95808.63;30001;983;1877;-58
2022/05/24 03:00:53;;;;;;;;;;;;;;;14.39;85.88;95810.22;30001;983;1881;-59
2022/05/24 03:01:28;;;;;;;;;;;;;;;14.39;85.17;95812.94;30001;983;1877;-59
2022/05/24 03:02:02;;;;;;;;;;;;;;;14.40;85.62;95811.81;30001;983;1868;-59
2022/05/24 03:02:33;;;;;;;;;;;;;;;14.42;85.38;95817.75;30001;982;1868;-58
2022/05/24 03:03:04;;;;;;;;;;;;;;;14.44;85.35;95812.75;30001;982;1881;-58
2022/05/24 03:03:35;;;;;;;;;;;;;;;14.46;84.93;95817.88;30001;982;1864;-60
2022/05/24 03:04:06;;;;;;;;;;;;;;;14.47;84.85;95811.28;30001;982;1873;-58
2022/05/24 03:04:36;;;;;;;;;;;;;;;14.50;84.73;95808.66;30001;982;1878;-60
2022/05/24 03:05:10;;;;;;;;;;;;;;;14.56;84.47;95814.66;30001;982;1882;-58
2022/05/24 03:05:40;;;;;;;;;;;;;;;14.59;84.36;95817.50;30001;982;1878;-57
2022/05/24 03:06:11;;;;;;;;;;;;;;;14.61;84.26;95808.94;30001;983;1881;-59
2022/05/24 03:09:57;;;;;;;;;;;;;;;14.59;84.09;95822.94;30001;982;1864;-59
2022/05/24 03:10:29;;;;;;;;;;;;;;;14.58;84.37;95821.34;30001;982;1873;-59
2022/05/24 03:11:00;;;;;;;;;;;;;;;14.55;84.55;95811.16;30001;982;1877;-57
2022/05/24 03:14:16;;;;;;;;;;;;;;;14.56;84.08;95814.66;30001;983;1877;-57